sensor_id;sensor_type;location;lat;lon;timestamp;P1;durP1;ratioP1;P2;durP2;ratioP2
18445;SDS011;9352;50.888;4.466;2023-07-24T00:01:02;20.95;;;6.57;;
18445;SDS011;9352;50.888;4.466;2023-07-24T00:03:30;19.20;;;6.78;;
18445;SDS011;9352;50.888;4.466;2023-07-24T00:05:57;18.50;;;6.57;;
18445;SDS011;9352;50.888;4.466;2023-07-24T00:08:25;18.48;;;6.43;;
18445;SDS011;9352;50.888;4.466;2023-07-24T00:10:51;19.55;;;6.85;;
18445;SDS011;9352;50.888;4.466;2023-07-24T00:13:18;28.02;;;7.53;;
18445;SDS011;9352;50.888;4.466;2023-07-24T00:15:45;18.83;;;6.65;;
18445;SDS011;9352;50.888;4.466;2023-07-24T00:18:12;22.75;;;6.88;;
18445;SDS011;9352;50.888;4.466;2023-07-24T00:20:40;22.33;;;6.95;;
18445;SDS011;9352;50.888;4.466;2023-07-24T00:23:07;21.40;;;7.75;;
18445;SDS011;9352;50.888;4.466;2023-07-24T00:25:34;22.55;;;7.47;;
18445;SDS011;9352;50.888;4.466;2023-07-24T00:28:01;19.88;;;6.90;;
18445;SDS011;9352;50.888;4.466;2023-07-24T00:30:28;23.48;;;7.28;;
18445;SDS011;9352;50.888;4.466;2023-07-24T00:32:55;24.63;;;7.07;;
18445;SDS011;9352;50.888;4.466;2023-07-24T00:35:22;23.52;;;7.47;;
18445;SDS011;9352;50.888;4.466;2023-07-24T00:37:50;21.92;;;7.25;;
18445;SDS011;9352;50.888;4.466;2023-07-24T00:40:17;23.67;;;7.82;;
18445;SDS011;9352;50.888;4.466;2023-07-24T00:42:46;25.75;;;7.97;;
18445;SDS011;9352;50.888;4.466;2023-07-24T00:45:13;33.53;;;8.38;;
18445;SDS011;9352;50.888;4.466;2023-07-24T00:47:40;23.20;;;7.55;;
18445;SDS011;9352;50.888;4.466;2023-07-24T00:50:07;25.83;;;7.32;;
18445;SDS011;9352;50.888;4.466;2023-07-24T00:52:37;21.10;;;7.45;;
18445;SDS011;9352;50.888;4.466;2023-07-24T00:55:06;25.35;;;8.15;;
18445;SDS011;9352;50.888;4.466;2023-07-24T00:57:34;21.05;;;7.40;;
18445;SDS011;9352;50.888;4.466;2023-07-24T01:00:02;29.83;;;7.95;;
18445;SDS011;9352;50.888;4.466;2023-07-24T01:02:29;25.02;;;7.97;;
18445;SDS011;9352;50.888;4.466;2023-07-24T01:04:56;26.90;;;8.23;;
18445;SDS011;9352;50.888;4.466;2023-07-24T01:07:24;22.27;;;7.57;;
18445;SDS011;9352;50.888;4.466;2023-07-24T01:09:51;25.08;;;7.75;;
18445;SDS011;9352;50.888;4.466;2023-07-24T01:12:31;25.35;;;7.45;;
18445;SDS011;9352;50.888;4.466;2023-07-24T01:15:03;27.77;;;8.02;;
18445;SDS011;9352;50.888;4.466;2023-07-24T01:17:37;31.30;;;7.80;;
18445;SDS011;9352;50.888;4.466;2023-07-24T01:20:11;23.95;;;7.65;;
18445;SDS011;9352;50.888;4.466;2023-07-24T01:22:40;21.95;;;7.50;;
18445;SDS011;9352;50.888;4.466;2023-07-24T01:25:18;19.98;;;7.47;;
18445;SDS011;9352;50.888;4.466;2023-07-24T01:27:51;25.23;;;7.28;;
18445;SDS011;9352;50.888;4.466;2023-07-24T01:30:18;28.38;;;7.55;;
18445;SDS011;9352;50.888;4.466;2023-07-24T01:32:46;25.67;;;7.40;;
18445;SDS011;9352;50.888;4.466;2023-07-24T01:35:13;25.88;;;7.45;;
18445;SDS011;9352;50.888;4.466;2023-07-24T01:37:40;19.42;;;6.72;;
18445;SDS011;9352;50.888;4.466;2023-07-24T01:40:09;16.42;;;6.15;;
18445;SDS011;9352;50.888;4.466;2023-07-24T01:42:37;22.10;;;6.78;;
18445;SDS011;9352;50.888;4.466;2023-07-24T01:45:07;19.30;;;6.95;;
18445;SDS011;9352;50.888;4.466;2023-07-24T01:47:36;20.23;;;7.05;;
18445;SDS011;9352;50.888;4.466;2023-07-24T01:50:03;18.05;;;6.90;;
18445;SDS011;9352;50.888;4.466;2023-07-24T01:52:31;25.73;;;7.03;;
18445;SDS011;9352;50.888;4.466;2023-07-24T01:54:57;18.05;;;4.70;;
18445;SDS011;9352;50.888;4.466;2023-07-24T01:57:24;10.52;;;4.80;;
18445;SDS011;9352;50.888;4.466;2023-07-24T01:59:51;10.40;;;3.05;;
18445;SDS011;9352;50.888;4.466;2023-07-24T02:02:19;12.30;;;4.28;;
18445;SDS011;9352;50.888;4.466;2023-07-24T02:04:46;8.20;;;3.83;;
18445;SDS011;9352;50.888;4.466;2023-07-24T02:07:13;9.70;;;3.95;;
18445;SDS011;9352;50.888;4.466;2023-07-24T02:09:40;7.88;;;2.90;;
18445;SDS011;9352;50.888;4.466;2023-07-24T02:12:07;8.95;;;2.72;;
18445;SDS011;9352;50.888;4.466;2023-07-24T02:14:34;7.38;;;3.20;;
18445;SDS011;9352;50.888;4.466;2023-07-24T02:17:01;3.65;;;2.38;;
18445;SDS011;9352;50.888;4.466;2023-07-24T02:19:29;7.78;;;2.60;;
18445;SDS011;9352;50.888;4.466;2023-07-24T02:21:56;5.03;;;2.50;;
18445;SDS011;9352;50.888;4.466;2023-07-24T02:24:23;5.10;;;2.58;;
18445;SDS011;9352;50.888;4.466;2023-07-24T02:26:50;4.47;;;2.85;;
18445;SDS011;9352;50.888;4.466;2023-07-24T02:29:17;12.35;;;2.30;;
18445;SDS011;9352;50.888;4.466;2023-07-24T02:31:44;7.80;;;2.38;;
18445;SDS011;9352;50.888;4.466;2023-07-24T02:34:10;5.78;;;2.50;;
18445;SDS011;9352;50.888;4.466;2023-07-24T02:36:39;4.55;;;2.20;;
18445;SDS011;9352;50.888;4.466;2023-07-24T02:39:06;7.18;;;2.33;;
18445;SDS011;9352;50.888;4.466;2023-07-24T02:41:33;3.08;;;2.25;;
18445;SDS011;9352;50.888;4.466;2023-07-24T02:44:01;4.03;;;2.05;;
18445;SDS011;9352;50.888;4.466;2023-07-24T02:46:28;6.78;;;2.20;;
18445;SDS011;9352;50.888;4.466;2023-07-24T02:48:56;4.97;;;2.38;;
18445;SDS011;9352;50.888;4.466;2023-07-24T02:51:22;6.13;;;2.63;;
18445;SDS011;9352;50.888;4.466;2023-07-24T02:53:52;12.70;;;2.70;;
18445;SDS011;9352;50.888;4.466;2023-07-24T02:56:19;3.72;;;1.92;;
18445;SDS011;9352;50.888;4.466;2023-07-24T02:58:46;8.57;;;2.88;;
18445;SDS011;9352;50.888;4.466;2023-07-24T03:01:13;8.30;;;2.83;;
18445;SDS011;9352;50.888;4.466;2023-07-24T03:03:40;6.38;;;2.65;;
18445;SDS011;9352;50.888;4.466;2023-07-24T03:06:07;7.93;;;2.92;;
18445;SDS011;9352;50.888;4.466;2023-07-24T03:08:34;7.40;;;2.63;;
18445;SDS011;9352;50.888;4.466;2023-07-24T03:11:05;4.43;;;2.17;;
18445;SDS011;9352;50.888;4.466;2023-07-24T03:13:32;3.13;;;2.20;;
18445;SDS011;9352;50.888;4.466;2023-07-24T03:15:59;3.28;;;2.10;;
18445;SDS011;9352;50.888;4.466;2023-07-24T03:18:25;3.88;;;2.13;;
18445;SDS011;9352;50.888;4.466;2023-07-24T03:20:52;2.42;;;1.63;;
18445;SDS011;9352;50.888;4.466;2023-07-24T03:23:19;1.83;;;1.60;;
18445;SDS011;9352;50.888;4.466;2023-07-24T03:25:46;5.65;;;1.45;;
18445;SDS011;9352;50.888;4.466;2023-07-24T03:28:14;3.45;;;1.75;;
18445;SDS011;9352;50.888;4.466;2023-07-24T03:30:41;2.17;;;1.65;;
18445;SDS011;9352;50.888;4.466;2023-07-24T03:33:08;2.55;;;1.70;;
18445;SDS011;9352;50.888;4.466;2023-07-24T03:35:37;2.20;;;1.55;;
18445;SDS011;9352;50.888;4.466;2023-07-24T03:38:04;2.97;;;1.90;;
18445;SDS011;9352;50.888;4.466;2023-07-24T03:40:31;2.97;;;1.90;;
18445;SDS011;9352;50.888;4.466;2023-07-24T03:42:58;1.90;;;1.73;;
18445;SDS011;9352;50.888;4.466;2023-07-24T03:45:27;1.73;;;1.60;;
18445;SDS011;9352;50.888;4.466;2023-07-24T03:47:53;2.22;;;1.80;;
18445;SDS011;9352;50.888;4.466;2023-07-24T03:50:20;2.55;;;1.90;;
18445;SDS011;9352;50.888;4.466;2023-07-24T03:52:47;2.35;;;1.85;;
18445;SDS011;9352;50.888;4.466;2023-07-24T03:55:14;2.38;;;1.98;;
18445;SDS011;9352;50.888;4.466;2023-07-24T03:57:41;3.13;;;1.80;;
18445;SDS011;9352;50.888;4.466;2023-07-24T04:00:08;2.92;;;2.08;;
18445;SDS011;9352;50.888;4.466;2023-07-24T04:02:37;3.83;;;2.17;;
18445;SDS011;9352;50.888;4.466;2023-07-24T04:05:04;2.80;;;2.20;;
18445;SDS011;9352;50.888;4.466;2023-07-24T04:07:31;5.00;;;2.38;;
18445;SDS011;9352;50.888;4.466;2023-07-24T04:09:58;2.53;;;2.28;;
18445;SDS011;9352;50.888;4.466;2023-07-24T04:12:25;9.48;;;2.65;;
18445;SDS011;9352;50.888;4.466;2023-07-24T04:14:52;6.72;;;2.30;;
18445;SDS011;9352;50.888;4.466;2023-07-24T04:17:19;8.10;;;2.40;;
18445;SDS011;9352;50.888;4.466;2023-07-24T04:19:47;2.95;;;2.15;;
18445;SDS011;9352;50.888;4.466;2023-07-24T04:22:14;2.47;;;1.90;;
18445;SDS011;9352;50.888;4.466;2023-07-24T04:24:41;6.93;;;1.88;;
18445;SDS011;9352;50.888;4.466;2023-07-24T04:27:08;1.90;;;1.70;;
18445;SDS011;9352;50.888;4.466;2023-07-24T04:29:34;2.22;;;1.92;;
18445;SDS011;9352;50.888;4.466;2023-07-24T04:32:01;4.03;;;2.67;;
18445;SDS011;9352;50.888;4.466;2023-07-24T04:34:29;2.08;;;1.95;;
18445;SDS011;9352;50.888;4.466;2023-07-24T04:36:59;3.15;;;2.45;;
18445;SDS011;9352;50.888;4.466;2023-07-24T04:39:26;3.63;;;2.00;;
18445;SDS011;9352;50.888;4.466;2023-07-24T04:41:53;8.18;;;2.30;;
18445;SDS011;9352;50.888;4.466;2023-07-24T04:44:20;2.40;;;2.20;;
18445;SDS011;9352;50.888;4.466;2023-07-24T04:46:46;4.82;;;2.30;;
18445;SDS011;9352;50.888;4.466;2023-07-24T04:49:13;3.70;;;2.30;;
18445;SDS011;9352;50.888;4.466;2023-07-24T04:51:40;3.13;;;2.30;;
18445;SDS011;9352;50.888;4.466;2023-07-24T04:54:08;4.13;;;2.40;;
18445;SDS011;9352;50.888;4.466;2023-07-24T04:56:35;3.47;;;2.47;;
18445;SDS011;9352;50.888;4.466;2023-07-24T04:59:02;2.38;;;2.17;;
18445;SDS011;9352;50.888;4.466;2023-07-24T05:01:29;2.90;;;2.40;;
18445;SDS011;9352;50.888;4.466;2023-07-24T05:03:56;3.50;;;2.35;;
18445;SDS011;9352;50.888;4.466;2023-07-24T05:06:23;4.82;;;2.58;;
18445;SDS011;9352;50.888;4.466;2023-07-24T05:08:49;6.50;;;2.60;;
18445;SDS011;9352;50.888;4.466;2023-07-24T05:11:19;3.13;;;2.70;;
18445;SDS011;9352;50.888;4.466;2023-07-24T05:13:46;8.10;;;2.80;;
18445;SDS011;9352;50.888;4.466;2023-07-24T05:16:13;5.55;;;2.50;;
18445;SDS011;9352;50.888;4.466;2023-07-24T05:18:40;3.60;;;2.78;;
18445;SDS011;9352;50.888;4.466;2023-07-24T05:21:07;8.02;;;2.90;;
18445;SDS011;9352;50.888;4.466;2023-07-24T05:23:33;5.47;;;2.78;;
18445;SDS011;9352;50.888;4.466;2023-07-24T05:26:01;5.47;;;2.60;;
18445;SDS011;9352;50.888;4.466;2023-07-24T05:28:31;5.85;;;2.70;;
18445;SDS011;9352;50.888;4.466;2023-07-24T05:30:59;4.13;;;2.47;;
18445;SDS011;9352;50.888;4.466;2023-07-24T05:33:28;3.92;;;2.70;;
18445;SDS011;9352;50.888;4.466;2023-07-24T05:35:57;3.75;;;2.65;;
18445;SDS011;9352;50.888;4.466;2023-07-24T05:38:24;5.07;;;2.70;;
18445;SDS011;9352;50.888;4.466;2023-07-24T05:40:54;6.15;;;2.67;;
18445;SDS011;9352;50.888;4.466;2023-07-24T05:43:21;3.58;;;2.88;;
18445;SDS011;9352;50.888;4.466;2023-07-24T05:45:50;3.35;;;2.80;;
18445;SDS011;9352;50.888;4.466;2023-07-24T05:48:17;6.05;;;3.30;;
18445;SDS011;9352;50.888;4.466;2023-07-24T05:50:44;4.43;;;3.20;;
18445;SDS011;9352;50.888;4.466;2023-07-24T05:53:11;4.72;;;3.28;;
18445;SDS011;9352;50.888;4.466;2023-07-24T05:55:38;4.60;;;3.38;;
18445;SDS011;9352;50.888;4.466;2023-07-24T05:58:04;3.63;;;3.20;;
18445;SDS011;9352;50.888;4.466;2023-07-24T06:00:31;6.15;;;3.25;;
18445;SDS011;9352;50.888;4.466;2023-07-24T06:03:00;7.70;;;3.50;;
18445;SDS011;9352;50.888;4.466;2023-07-24T06:05:27;18.02;;;7.30;;
18445;SDS011;9352;50.888;4.466;2023-07-24T06:07:54;6.90;;;3.60;;
18445;SDS011;9352;50.888;4.466;2023-07-24T06:10:21;3.83;;;3.28;;
18445;SDS011;9352;50.888;4.466;2023-07-24T06:12:48;4.70;;;3.00;;
18445;SDS011;9352;50.888;4.466;2023-07-24T06:15:15;4.60;;;2.83;;
18445;SDS011;9352;50.888;4.466;2023-07-24T06:17:42;3.13;;;2.92;;
18445;SDS011;9352;50.888;4.466;2023-07-24T06:20:10;5.03;;;2.95;;
18445;SDS011;9352;50.888;4.466;2023-07-24T06:22:37;8.50;;;3.47;;
18445;SDS011;9352;50.888;4.466;2023-07-24T06:25:04;4.60;;;3.20;;
18445;SDS011;9352;50.888;4.466;2023-07-24T06:27:32;6.88;;;2.75;;
18445;SDS011;9352;50.888;4.466;2023-07-24T06:29:59;5.45;;;3.03;;
18445;SDS011;9352;50.888;4.466;2023-07-24T06:32:25;4.90;;;3.50;;
18445;SDS011;9352;50.888;4.466;2023-07-24T06:34:52;2.78;;;2.58;;
18445;SDS011;9352;50.888;4.466;2023-07-24T06:37:21;3.50;;;2.83;;
18445;SDS011;9352;50.888;4.466;2023-07-24T06:39:48;6.28;;;2.88;;
18445;SDS011;9352;50.888;4.466;2023-07-24T06:42:15;5.22;;;2.92;;
18445;SDS011;9352;50.888;4.466;2023-07-24T06:44:41;3.65;;;2.75;;
18445;SDS011;9352;50.888;4.466;2023-07-24T06:47:08;4.93;;;3.25;;
18445;SDS011;9352;50.888;4.466;2023-07-24T06:49:35;5.75;;;2.95;;
18445;SDS011;9352;50.888;4.466;2023-07-24T06:52:02;3.72;;;2.70;;
18445;SDS011;9352;50.888;4.466;2023-07-24T06:54:31;2.75;;;2.50;;
18445;SDS011;9352;50.888;4.466;2023-07-24T06:56:57;2.65;;;2.53;;
18445;SDS011;9352;50.888;4.466;2023-07-24T06:59:24;9.43;;;3.00;;
18445;SDS011;9352;50.888;4.466;2023-07-24T07:01:51;4.13;;;2.47;;
18445;SDS011;9352;50.888;4.466;2023-07-24T07:04:18;2.47;;;2.25;;
18445;SDS011;9352;50.888;4.466;2023-07-24T07:06:45;5.22;;;2.67;;
18445;SDS011;9352;50.888;4.466;2023-07-24T07:09:12;2.70;;;2.50;;
18445;SDS011;9352;50.888;4.466;2023-07-24T07:11:40;2.90;;;2.70;;
18445;SDS011;9352;50.888;4.466;2023-07-24T07:14:08;5.07;;;2.72;;
18445;SDS011;9352;50.888;4.466;2023-07-24T07:16:35;3.13;;;2.75;;
18445;SDS011;9352;50.888;4.466;2023-07-24T07:19:02;4.40;;;2.38;;
18445;SDS011;9352;50.888;4.466;2023-07-24T07:21:29;5.68;;;2.38;;
18445;SDS011;9352;50.888;4.466;2023-07-24T07:23:56;6.25;;;2.72;;
18445;SDS011;9352;50.888;4.466;2023-07-24T07:26:22;3.33;;;2.47;;
18445;SDS011;9352;50.888;4.466;2023-07-24T07:28:51;4.20;;;2.58;;
18445;SDS011;9352;50.888;4.466;2023-07-24T07:31:18;4.68;;;2.47;;
18445;SDS011;9352;50.888;4.466;2023-07-24T07:33:45;3.25;;;2.28;;
18445;SDS011;9352;50.888;4.466;2023-07-24T07:36:13;2.53;;;2.33;;
18445;SDS011;9352;50.888;4.466;2023-07-24T07:38:40;3.03;;;2.40;;
18445;SDS011;9352;50.888;4.466;2023-07-24T07:41:07;3.72;;;2.60;;
18445;SDS011;9352;50.888;4.466;2023-07-24T07:43:34;4.40;;;2.45;;
18445;SDS011;9352;50.888;4.466;2023-07-24T07:46:04;3.47;;;2.30;;
18445;SDS011;9352;50.888;4.466;2023-07-24T07:48:31;5.60;;;2.40;;
18445;SDS011;9352;50.888;4.466;2023-07-24T07:50:58;2.78;;;2.58;;
18445;SDS011;9352;50.888;4.466;2023-07-24T07:53:25;3.78;;;2.45;;
18445;SDS011;9352;50.888;4.466;2023-07-24T07:55:55;2.90;;;2.38;;
18445;SDS011;9352;50.888;4.466;2023-07-24T07:58:23;3.72;;;2.30;;
18445;SDS011;9352;50.888;4.466;2023-07-24T08:00:49;3.25;;;2.83;;
18445;SDS011;9352;50.888;4.466;2023-07-24T08:03:18;3.42;;;2.20;;
18445;SDS011;9352;50.888;4.466;2023-07-24T08:05:45;5.65;;;2.78;;
18445;SDS011;9352;50.888;4.466;2023-07-24T08:08:11;5.43;;;2.63;;
18445;SDS011;9352;50.888;4.466;2023-07-24T08:10:38;6.85;;;2.80;;
18445;SDS011;9352;50.888;4.466;2023-07-24T08:13:06;3.80;;;2.60;;
18445;SDS011;9352;50.888;4.466;2023-07-24T08:15:33;3.25;;;2.63;;
18445;SDS011;9352;50.888;4.466;2023-07-24T08:18:01;3.80;;;2.50;;
18445;SDS011;9352;50.888;4.466;2023-07-24T08:20:30;5.03;;;2.70;;
18445;SDS011;9352;50.888;4.466;2023-07-24T08:22:58;7.05;;;3.00;;
18445;SDS011;9352;50.888;4.466;2023-07-24T08:25:25;4.45;;;3.20;;
18445;SDS011;9352;50.888;4.466;2023-07-24T08:27:52;2.97;;;2.67;;
18445;SDS011;9352;50.888;4.466;2023-07-24T08:30:19;2.97;;;2.72;;
18445;SDS011;9352;50.888;4.466;2023-07-24T08:32:46;3.47;;;2.80;;
18445;SDS011;9352;50.888;4.466;2023-07-24T08:35:15;3.17;;;2.97;;
18445;SDS011;9352;50.888;4.466;2023-07-24T08:37:43;8.02;;;3.22;;
18445;SDS011;9352;50.888;4.466;2023-07-24T08:40:11;3.50;;;3.10;;
18445;SDS011;9352;50.888;4.466;2023-07-24T08:42:38;6.53;;;2.92;;
18445;SDS011;9352;50.888;4.466;2023-07-24T08:45:07;3.75;;;3.30;;
18445;SDS011;9352;50.888;4.466;2023-07-24T08:47:37;4.60;;;2.80;;
18445;SDS011;9352;50.888;4.466;2023-07-24T08:50:07;3.22;;;2.72;;
18445;SDS011;9352;50.888;4.466;2023-07-24T08:52:36;4.63;;;2.95;;
18445;SDS011;9352;50.888;4.466;2023-07-24T08:55:05;3.50;;;3.00;;
18445;SDS011;9352;50.888;4.466;2023-07-24T08:57:33;4.70;;;3.53;;
18445;SDS011;9352;50.888;4.466;2023-07-24T09:00:00;6.70;;;2.72;;
18445;SDS011;9352;50.888;4.466;2023-07-24T09:02:29;5.65;;;3.05;;
18445;SDS011;9352;50.888;4.466;2023-07-24T09:04:57;3.47;;;3.17;;
18445;SDS011;9352;50.888;4.466;2023-07-24T09:07:24;8.75;;;3.10;;
18445;SDS011;9352;50.888;4.466;2023-07-24T09:09:50;4.03;;;3.00;;
18445;SDS011;9352;50.888;4.466;2023-07-24T09:12:21;5.15;;;3.05;;
18445;SDS011;9352;50.888;4.466;2023-07-24T09:14:48;3.75;;;2.75;;
18445;SDS011;9352;50.888;4.466;2023-07-24T09:17:15;4.68;;;3.00;;
18445;SDS011;9352;50.888;4.466;2023-07-24T09:19:42;5.55;;;2.70;;
18445;SDS011;9352;50.888;4.466;2023-07-24T09:22:10;3.78;;;2.72;;
18445;SDS011;9352;50.888;4.466;2023-07-24T09:24:48;4.88;;;3.30;;
18445;SDS011;9352;50.888;4.466;2023-07-24T09:27:16;3.05;;;2.75;;
18445;SDS011;9352;50.888;4.466;2023-07-24T09:29:44;3.00;;;2.80;;
18445;SDS011;9352;50.888;4.466;2023-07-24T09:32:18;6.05;;;3.30;;
18445;SDS011;9352;50.888;4.466;2023-07-24T09:34:46;3.58;;;3.28;;
18445;SDS011;9352;50.888;4.466;2023-07-24T09:37:22;5.15;;;3.05;;
18445;SDS011;9352;50.888;4.466;2023-07-24T09:39:50;3.80;;;2.92;;
18445;SDS011;9352;50.888;4.466;2023-07-24T09:42:17;3.20;;;2.92;;
18445;SDS011;9352;50.888;4.466;2023-07-24T09:44:45;3.92;;;3.30;;
18445;SDS011;9352;50.888;4.466;2023-07-24T09:47:12;5.35;;;3.40;;
18445;SDS011;9352;50.888;4.466;2023-07-24T09:49:39;12.63;;;3.65;;
18445;SDS011;9352;50.888;4.466;2023-07-24T09:52:06;9.73;;;3.78;;
18445;SDS011;9352;50.888;4.466;2023-07-24T09:54:37;8.60;;;3.50;;
18445;SDS011;9352;50.888;4.466;2023-07-24T09:57:11;7.43;;;3.55;;
18445;SDS011;9352;50.888;4.466;2023-07-24T09:59:40;5.10;;;3.53;;
18445;SDS011;9352;50.888;4.466;2023-07-24T10:02:09;11.55;;;4.00;;
18445;SDS011;9352;50.888;4.466;2023-07-24T10:04:38;5.53;;;3.45;;
18445;SDS011;9352;50.888;4.466;2023-07-24T10:07:06;6.18;;;3.05;;
18445;SDS011;9352;50.888;4.466;2023-07-24T10:09:33;6.10;;;3.38;;
18445;SDS011;9352;50.888;4.466;2023-07-24T10:12:02;6.20;;;3.15;;
18445;SDS011;9352;50.888;4.466;2023-07-24T10:14:29;3.40;;;3.10;;
18445;SDS011;9352;50.888;4.466;2023-07-24T10:16:57;6.53;;;3.40;;
18445;SDS011;9352;50.888;4.466;2023-07-24T10:19:34;3.50;;;3.20;;
18445;SDS011;9352;50.888;4.466;2023-07-24T10:22:03;3.85;;;2.63;;
18445;SDS011;9352;50.888;4.466;2023-07-24T10:24:30;5.07;;;3.20;;
18445;SDS011;9352;50.888;4.466;2023-07-24T10:26:57;3.25;;;2.92;;
18445;SDS011;9352;50.888;4.466;2023-07-24T10:29:24;2.90;;;2.70;;
18445;SDS011;9352;50.888;4.466;2023-07-24T10:31:54;3.17;;;2.67;;
18445;SDS011;9352;50.888;4.466;2023-07-24T10:34:21;3.25;;;2.38;;
18445;SDS011;9352;50.888;4.466;2023-07-24T10:36:49;2.85;;;2.50;;
18445;SDS011;9352;50.888;4.466;2023-07-24T10:39:16;3.30;;;2.78;;
18445;SDS011;9352;50.888;4.466;2023-07-24T10:41:45;2.67;;;2.47;;
18445;SDS011;9352;50.888;4.466;2023-07-24T10:44:12;2.40;;;2.30;;
18445;SDS011;9352;50.888;4.466;2023-07-24T10:46:40;2.65;;;2.45;;
18445;SDS011;9352;50.888;4.466;2023-07-24T10:49:07;2.78;;;2.55;;
18445;SDS011;9352;50.888;4.466;2023-07-24T10:51:35;4.72;;;3.10;;
18445;SDS011;9352;50.888;4.466;2023-07-24T10:54:04;3.38;;;3.08;;
18445;SDS011;9352;50.888;4.466;2023-07-24T10:56:31;4.05;;;2.85;;
18445;SDS011;9352;50.888;4.466;2023-07-24T10:59:02;3.17;;;2.97;;
18445;SDS011;9352;50.888;4.466;2023-07-24T11:01:31;3.40;;;3.20;;
18445;SDS011;9352;50.888;4.466;2023-07-24T11:03:58;2.90;;;2.70;;
18445;SDS011;9352;50.888;4.466;2023-07-24T11:06:25;4.47;;;2.85;;
18445;SDS011;9352;50.888;4.466;2023-07-24T11:08:53;5.57;;;2.72;;
18445;SDS011;9352;50.888;4.466;2023-07-24T11:11:23;5.18;;;3.50;;
18445;SDS011;9352;50.888;4.466;2023-07-24T11:13:54;4.07;;;3.53;;
18445;SDS011;9352;50.888;4.466;2023-07-24T11:16:21;3.70;;;3.40;;
18445;SDS011;9352;50.888;4.466;2023-07-24T11:18:49;5.60;;;3.40;;
18445;SDS011;9352;50.888;4.466;2023-07-24T11:21:18;6.53;;;3.50;;
18445;SDS011;9352;50.888;4.466;2023-07-24T11:23:46;3.55;;;3.25;;
18445;SDS011;9352;50.888;4.466;2023-07-24T11:26:13;3.63;;;3.33;;
18445;SDS011;9352;50.888;4.466;2023-07-24T11:28:42;8.77;;;4.10;;
18445;SDS011;9352;50.888;4.466;2023-07-24T11:31:09;4.40;;;3.75;;
18445;SDS011;9352;50.888;4.466;2023-07-24T11:33:36;3.58;;;3.28;;
18445;SDS011;9352;50.888;4.466;2023-07-24T11:36:04;7.38;;;3.90;;
18445;SDS011;9352;50.888;4.466;2023-07-24T11:38:31;4.78;;;3.50;;
18445;SDS011;9352;50.888;4.466;2023-07-24T11:40:58;3.60;;;3.30;;
18445;SDS011;9352;50.888;4.466;2023-07-24T11:43:25;3.50;;;3.20;;
18445;SDS011;9352;50.888;4.466;2023-07-24T11:45:53;4.30;;;3.42;;
18445;SDS011;9352;50.888;4.466;2023-07-24T11:48:22;4.03;;;3.65;;
18445;SDS011;9352;50.888;4.466;2023-07-24T11:50:50;4.75;;;3.97;;
18445;SDS011;9352;50.888;4.466;2023-07-24T11:53:20;4.90;;;3.90;;
18445;SDS011;9352;50.888;4.466;2023-07-24T11:55:48;6.28;;;3.78;;
18445;SDS011;9352;50.888;4.466;2023-07-24T11:58:16;7.07;;;3.80;;
18445;SDS011;9352;50.888;4.466;2023-07-24T12:00:43;4.40;;;3.80;;
18445;SDS011;9352;50.888;4.466;2023-07-24T12:03:13;4.97;;;3.85;;
18445;SDS011;9352;50.888;4.466;2023-07-24T12:05:44;7.10;;;3.97;;
18445;SDS011;9352;50.888;4.466;2023-07-24T12:08:11;6.03;;;3.92;;
18445;SDS011;9352;50.888;4.466;2023-07-24T12:10:40;4.88;;;3.75;;
18445;SDS011;9352;50.888;4.466;2023-07-24T12:13:07;5.22;;;3.90;;
18445;SDS011;9352;50.888;4.466;2023-07-24T12:15:35;3.70;;;3.47;;
18445;SDS011;9352;50.888;4.466;2023-07-24T12:18:02;9.43;;;3.65;;
18445;SDS011;9352;50.888;4.466;2023-07-24T12:20:31;4.43;;;3.50;;
18445;SDS011;9352;50.888;4.466;2023-07-24T12:22:59;4.00;;;3.65;;
18445;SDS011;9352;50.888;4.466;2023-07-24T12:25:25;4.00;;;3.45;;
18445;SDS011;9352;50.888;4.466;2023-07-24T12:27:52;3.65;;;3.35;;
18445;SDS011;9352;50.888;4.466;2023-07-24T12:30:19;3.55;;;3.25;;
18445;SDS011;9352;50.888;4.466;2023-07-24T12:32:46;4.55;;;3.50;;
18445;SDS011;9352;50.888;4.466;2023-07-24T12:35:13;3.65;;;3.30;;
18445;SDS011;9352;50.888;4.466;2023-07-24T12:37:42;4.13;;;3.15;;
18445;SDS011;9352;50.888;4.466;2023-07-24T12:40:10;4.90;;;3.65;;
18445;SDS011;9352;50.888;4.466;2023-07-24T12:42:37;3.97;;;3.58;;
18445;SDS011;9352;50.888;4.466;2023-07-24T12:45:05;5.50;;;3.60;;
18445;SDS011;9352;50.888;4.466;2023-07-24T12:47:32;5.55;;;3.45;;
18445;SDS011;9352;50.888;4.466;2023-07-24T12:49:59;3.42;;;3.22;;
18445;SDS011;9352;50.888;4.466;2023-07-24T12:52:28;4.65;;;3.35;;
18445;SDS011;9352;50.888;4.466;2023-07-24T12:54:57;5.90;;;3.47;;
18445;SDS011;9352;50.888;4.466;2023-07-24T12:57:24;4.95;;;3.30;;
18445;SDS011;9352;50.888;4.466;2023-07-24T12:59:51;5.60;;;3.00;;
18445;SDS011;9352;50.888;4.466;2023-07-24T13:02:18;6.80;;;2.97;;
18445;SDS011;9352;50.888;4.466;2023-07-24T13:04:45;3.67;;;3.38;;
18445;SDS011;9352;50.888;4.466;2023-07-24T13:07:12;3.67;;;3.30;;
18445;SDS011;9352;50.888;4.466;2023-07-24T13:09:39;3.88;;;3.17;;
18445;SDS011;9352;50.888;4.466;2023-07-24T13:12:08;3.40;;;3.10;;
18445;SDS011;9352;50.888;4.466;2023-07-24T13:14:35;4.47;;;3.60;;
18445;SDS011;9352;50.888;4.466;2023-07-24T13:17:02;4.00;;;2.92;;
18445;SDS011;9352;50.888;4.466;2023-07-24T13:19:29;7.32;;;3.10;;
18445;SDS011;9352;50.888;4.466;2023-07-24T13:21:56;4.82;;;3.13;;
18445;SDS011;9352;50.888;4.466;2023-07-24T13:24:23;5.43;;;2.85;;
18445;SDS011;9352;50.888;4.466;2023-07-24T13:26:50;4.53;;;2.97;;
18445;SDS011;9352;50.888;4.466;2023-07-24T13:29:18;6.22;;;3.20;;
18445;SDS011;9352;50.888;4.466;2023-07-24T13:31:45;7.55;;;3.25;;
18445;SDS011;9352;50.888;4.466;2023-07-24T13:34:12;3.63;;;3.03;;
18445;SDS011;9352;50.888;4.466;2023-07-24T13:36:39;3.78;;;3.30;;
18445;SDS011;9352;50.888;4.466;2023-07-24T13:39:06;4.25;;;3.22;;
18445;SDS011;9352;50.888;4.466;2023-07-24T13:41:33;4.05;;;3.28;;
18445;SDS011;9352;50.888;4.466;2023-07-24T13:44:01;4.25;;;3.55;;
18445;SDS011;9352;50.888;4.466;2023-07-24T13:46:29;5.05;;;3.30;;
18445;SDS011;9352;50.888;4.466;2023-07-24T13:48:56;3.70;;;2.97;;
18445;SDS011;9352;50.888;4.466;2023-07-24T13:51:23;7.78;;;3.10;;
18445;SDS011;9352;50.888;4.466;2023-07-24T13:53:50;5.38;;;3.25;;
18445;SDS011;9352;50.888;4.466;2023-07-24T13:56:18;4.38;;;3.30;;
18445;SDS011;9352;50.888;4.466;2023-07-24T13:58:47;8.95;;;3.70;;
18445;SDS011;9352;50.888;4.466;2023-07-24T14:01:14;4.28;;;3.00;;
18445;SDS011;9352;50.888;4.466;2023-07-24T14:03:42;3.22;;;2.92;;
18445;SDS011;9352;50.888;4.466;2023-07-24T14:06:09;3.33;;;2.60;;
18445;SDS011;9352;50.888;4.466;2023-07-24T14:08:36;4.38;;;2.97;;
18445;SDS011;9352;50.888;4.466;2023-07-24T14:11:03;4.38;;;3.10;;
18445;SDS011;9352;50.888;4.466;2023-07-24T14:13:30;3.00;;;2.78;;
18445;SDS011;9352;50.888;4.466;2023-07-24T14:15:57;4.05;;;3.30;;
18445;SDS011;9352;50.888;4.466;2023-07-24T14:18:24;3.63;;;2.67;;
18445;SDS011;9352;50.888;4.466;2023-07-24T14:20:52;7.38;;;2.85;;
18445;SDS011;9352;50.888;4.466;2023-07-24T14:23:21;3.97;;;2.70;;
18445;SDS011;9352;50.888;4.466;2023-07-24T14:25:48;3.38;;;2.63;;
18445;SDS011;9352;50.888;4.466;2023-07-24T14:28:15;2.67;;;2.42;;
18445;SDS011;9352;50.888;4.466;2023-07-24T14:30:42;3.10;;;2.65;;
18445;SDS011;9352;50.888;4.466;2023-07-24T14:33:09;4.15;;;2.70;;
18445;SDS011;9352;50.888;4.466;2023-07-24T14:35:36;3.83;;;2.75;;
18445;SDS011;9352;50.888;4.466;2023-07-24T14:38:04;2.95;;;2.70;;
18445;SDS011;9352;50.888;4.466;2023-07-24T14:40:31;3.22;;;2.70;;
18445;SDS011;9352;50.888;4.466;2023-07-24T14:42:58;2.90;;;2.63;;
18445;SDS011;9352;50.888;4.466;2023-07-24T14:45:25;3.58;;;2.17;;
18445;SDS011;9352;50.888;4.466;2023-07-24T14:47:52;5.93;;;2.90;;
18445;SDS011;9352;50.888;4.466;2023-07-24T14:50:19;3.55;;;2.47;;
18445;SDS011;9352;50.888;4.466;2023-07-24T14:52:45;2.72;;;2.50;;
18445;SDS011;9352;50.888;4.466;2023-07-24T14:55:14;3.80;;;2.63;;
18445;SDS011;9352;50.888;4.466;2023-07-24T14:57:41;4.40;;;2.45;;
18445;SDS011;9352;50.888;4.466;2023-07-24T15:00:08;4.32;;;2.65;;
18445;SDS011;9352;50.888;4.466;2023-07-24T15:02:35;5.78;;;2.75;;